createdAt,value
2019-02-08T00:00:14.982Z,9.38
2019-02-08T00:02:46.381Z,6.53
2019-02-08T00:05:17.162Z,7.35
2019-02-08T00:07:48.204Z,9.88
2019-02-08T00:11:33.119Z,9.25
2019-02-08T00:14:04.239Z,7.53
2019-02-08T00:16:35.024Z,6.17
2019-02-08T00:19:06.062Z,7.03
2019-02-08T00:21:36.953Z,9.43
2019-02-08T00:24:07.858Z,6.50
2019-02-08T00:26:39.070Z,8.20
2019-02-08T00:29:10.315Z,8.68
2019-02-08T00:31:41.978Z,9.08
2019-02-08T00:34:12.829Z,9.48
2019-02-08T00:36:44.159Z,9.07
2019-02-08T00:39:15.427Z,7.20
2019-02-08T00:41:46.447Z,8.60
2019-02-08T00:44:17.895Z,7.83
2019-02-08T00:46:49.004Z,8.78
2019-02-08T00:49:20.486Z,8.05
2019-02-08T00:51:51.519Z,7.37
2019-02-08T00:54:22.375Z,8.68
2019-02-08T00:56:54.315Z,9.80
2019-02-08T00:59:25.743Z,8.55
2019-02-08T01:01:56.854Z,9.60
2019-02-08T01:04:28.026Z,6.85
2019-02-08T01:06:58.858Z,7.72
2019-02-08T01:09:29.892Z,7.85
2019-02-08T01:12:00.684Z,11.70
2019-02-08T01:14:31.759Z,10.53
2019-02-08T01:17:03.067Z,11.55
2019-02-08T01:19:34.152Z,10.05
2019-02-08T01:22:05.374Z,9.77
2019-02-08T01:24:36.925Z,8.53
2019-02-08T01:27:07.831Z,7.80
2019-02-08T01:29:38.593Z,7.70
2019-02-08T01:32:10.520Z,8.83
2019-02-08T01:34:41.269Z,7.45
2019-02-08T01:37:12.122Z,6.95
2019-02-08T01:39:43.250Z,8.87
2019-02-08T01:42:14.043Z,7.95
2019-02-08T01:44:44.786Z,7.77
2019-02-08T01:47:15.519Z,8.03
2019-02-08T01:49:46.579Z,7.70
2019-02-08T01:52:17.747Z,7.92
2019-02-08T01:54:48.809Z,7.03
2019-02-08T01:57:19.670Z,7.50
2019-02-08T01:59:50.482Z,6.95
2019-02-08T02:02:21.368Z,5.78
2019-02-08T02:04:52.415Z,8.18
2019-02-08T02:07:23.481Z,8.13
2019-02-08T02:09:54.383Z,9.33
2019-02-08T02:12:25.422Z,8.20
2019-02-08T02:14:57.278Z,8.35
2019-02-08T02:17:28.672Z,7.67
2019-02-08T02:19:59.539Z,7.58
2019-02-08T02:22:30.381Z,9.75
2019-02-08T02:25:02.205Z,7.53
2019-02-08T02:27:33.525Z,8.28
2019-02-08T02:30:07.075Z,7.03
2019-02-08T02:32:38.051Z,8.83
2019-02-08T02:35:10.041Z,11.85
2019-02-08T02:37:41.377Z,8.20
2019-02-08T02:40:13.259Z,9.00
2019-02-08T02:42:44.407Z,9.70
2019-02-08T02:45:18.751Z,7.22
2019-02-08T02:47:49.656Z,9.23
2019-02-08T02:50:21.414Z,8.40
2019-02-08T02:52:52.202Z,6.50
2019-02-08T02:55:24.850Z,7.85
2019-02-08T02:57:55.846Z,10.75
2019-02-08T03:00:32.979Z,7.50
2019-02-08T03:03:03.992Z,9.13
2019-02-08T03:05:35.073Z,7.55
2019-02-08T03:08:07.480Z,6.97
2019-02-08T03:10:38.453Z,9.38
2019-02-08T03:13:09.723Z,9.20
2019-02-08T03:15:40.583Z,9.45
2019-02-08T03:18:12.037Z,8.03
2019-02-08T03:20:42.906Z,8.90
2019-02-08T03:23:14.022Z,6.97
2019-02-08T03:25:45.054Z,6.62
2019-02-08T03:28:15.785Z,6.58
2019-02-08T03:30:55.278Z,7.40
2019-02-08T03:33:26.194Z,9.08
2019-02-08T03:35:57.070Z,7.70
2019-02-08T03:38:27.941Z,5.67
2019-02-08T03:40:58.794Z,8.28
2019-02-08T03:43:29.828Z,7.17
2019-02-08T03:46:01.659Z,6.28
2019-02-08T03:48:32.986Z,8.50
2019-02-08T03:51:05.056Z,7.72
2019-02-08T03:53:36.189Z,7.08
2019-02-08T03:56:07.478Z,5.90
2019-02-08T03:58:38.390Z,5.87
2019-02-08T04:01:10.473Z,7.70
2019-02-08T04:03:42.760Z,5.83
2019-02-08T04:06:13.595Z,6.65
2019-02-08T04:08:44.407Z,6.20
2019-02-08T04:11:15.346Z,7.20
2019-02-08T04:13:46.311Z,7.60
2019-02-08T04:16:17.246Z,7.03
2019-02-08T04:18:48.023Z,7.37
2019-02-08T04:21:19.058Z,5.78
2019-02-08T04:23:49.945Z,8.23
2019-02-08T04:26:20.721Z,7.95
2019-02-08T04:28:51.882Z,5.78
2019-02-08T04:31:22.685Z,7.55
2019-02-08T04:33:53.560Z,7.05
2019-02-08T04:36:24.851Z,7.17
2019-02-08T04:38:55.915Z,7.28
2019-02-08T04:41:26.768Z,7.20
2019-02-08T04:43:57.758Z,7.28
2019-02-08T04:46:28.825Z,9.00
2019-02-08T04:48:59.603Z,7.12
2019-02-08T04:51:30.389Z,6.80
2019-02-08T04:54:01.623Z,8.78
2019-02-08T04:56:32.412Z,7.62
2019-02-08T04:59:03.779Z,8.03
2019-02-08T05:01:34.613Z,8.85
2019-02-08T05:04:05.879Z,8.00
2019-02-08T05:06:37.088Z,10.05
2019-02-08T05:09:08.768Z,9.53
2019-02-08T05:11:39.606Z,8.83
2019-02-08T05:14:10.554Z,7.20
2019-02-08T05:16:41.640Z,9.43
2019-02-08T05:19:12.531Z,7.62
2019-02-08T05:21:43.372Z,9.08
2019-02-08T05:24:14.296Z,7.85
2019-02-08T05:26:45.079Z,6.72
2019-02-08T05:29:15.945Z,7.42
2019-02-08T05:31:46.807Z,8.80
2019-02-08T05:34:17.572Z,10.30
2019-02-08T05:36:48.721Z,9.23
2019-02-08T05:39:19.476Z,7.42
2019-02-08T05:41:50.360Z,8.20
2019-02-08T05:44:21.131Z,7.60
2019-02-08T05:46:51.903Z,9.68
2019-02-08T05:49:23.148Z,7.92
2019-02-08T05:51:54.333Z,7.75
2019-02-08T05:54:25.094Z,7.67
2019-02-08T05:56:55.951Z,7.17
2019-02-08T05:59:26.933Z,7.85
2019-02-08T06:01:58.208Z,9.05
2019-02-08T06:04:28.982Z,8.33
2019-02-08T06:06:59.748Z,7.75
2019-02-08T06:09:30.624Z,6.80
2019-02-08T06:12:01.491Z,7.33
2019-02-08T06:14:32.330Z,7.20
2019-02-08T06:17:03.134Z,6.45
2019-02-08T06:19:34.422Z,7.37
2019-02-08T06:22:05.640Z,7.03
2019-02-08T06:24:37.061Z,8.90
2019-02-08T06:27:07.995Z,7.80
2019-02-08T06:29:38.760Z,5.97
2019-02-08T06:32:09.852Z,7.33
2019-02-08T06:36:59.260Z,7.45
2019-02-08T06:39:30.106Z,7.87
2019-02-08T06:42:01.387Z,8.48
2019-02-08T06:44:32.851Z,7.33
2019-02-08T06:47:03.688Z,6.17
2019-02-08T06:49:34.510Z,4.95
2019-02-08T06:52:05.440Z,5.75
2019-02-08T06:54:36.439Z,6.28
2019-02-08T06:57:25.344Z,6.78
2019-02-08T07:00:14.229Z,8.50
2019-02-08T07:03:13.560Z,7.07
2019-02-08T07:05:58.745Z,5.65
2019-02-08T07:08:36.840Z,6.85
2019-02-08T07:11:19.231Z,6.87
2019-02-08T07:14:08.188Z,8.37
2019-02-08T07:16:56.892Z,6.10
2019-02-08T07:19:43.005Z,6.70
2019-02-08T07:22:31.816Z,6.70
2019-02-08T07:25:19.244Z,6.90
2019-02-08T07:28:02.876Z,6.33
2019-02-08T07:30:52.600Z,6.75
2019-02-08T07:33:33.364Z,6.45
2019-02-08T07:36:16.652Z,6.45
2019-02-08T07:39:01.717Z,6.90
2019-02-08T07:41:56.299Z,5.50
2019-02-08T07:44:55.258Z,7.85
2019-02-08T07:47:49.548Z,5.58
2019-02-08T07:50:40.624Z,5.62
2019-02-08T07:53:34.000Z,9.38
2019-02-08T07:56:28.566Z,6.47
2019-02-08T07:59:17.548Z,5.65
2019-02-08T08:01:57.271Z,5.10
2019-02-08T08:05:00.766Z,5.20
2019-02-08T08:08:05.705Z,5.22
2019-02-08T08:10:58.288Z,5.35
2019-02-08T08:14:00.255Z,5.05
2019-02-08T08:16:49.378Z,6.85
2019-02-08T08:19:40.010Z,5.87
2019-02-08T08:22:27.943Z,5.67
2019-02-08T08:25:18.096Z,5.97
2019-02-08T08:28:17.062Z,5.03
2019-02-08T08:31:13.645Z,4.33
2019-02-08T08:33:52.093Z,6.05
2019-02-08T08:36:53.995Z,4.58
2019-02-08T08:40:24.288Z,5.17
2019-02-08T08:43:21.167Z,5.33
2019-02-08T08:46:35.296Z,4.33
2019-02-08T08:49:43.559Z,3.80
2019-02-08T08:53:07.439Z,3.50
2019-02-08T08:56:09.972Z,4.92
2019-02-08T08:59:07.403Z,4.25
2019-02-08T09:02:10.721Z,3.90
2019-02-08T09:05:22.099Z,4.60
2019-02-08T09:08:20.918Z,3.58
2019-02-08T09:11:24.485Z,2.77
2019-02-08T09:14:22.797Z,4.42
2019-02-08T09:17:27.713Z,2.95
2019-02-08T09:20:58.263Z,3.17
2019-02-08T09:24:21.723Z,3.55
2019-02-08T09:27:28.016Z,2.65
2019-02-08T09:30:22.489Z,2.15
2019-02-08T09:33:46.498Z,2.67
2019-02-08T09:36:37.767Z,2.90
2019-02-08T09:39:40.324Z,3.08
2019-02-08T09:43:00.844Z,2.12
2019-02-08T09:46:07.785Z,1.70
2019-02-08T09:49:05.095Z,1.92
2019-02-08T09:52:20.401Z,2.25
2019-02-08T09:55:27.674Z,3.90
2019-02-08T09:58:36.200Z,2.77
2019-02-08T10:01:32.961Z,2.62
2019-02-08T10:04:20.278Z,3.80
2019-02-08T10:07:22.653Z,3.47
2019-02-08T10:10:38.226Z,2.67
2019-02-08T10:13:45.558Z,4.65
2019-02-08T10:16:52.839Z,4.33
2019-02-08T10:20:00.029Z,2.30
2019-02-08T10:23:14.602Z,1.90
2019-02-08T10:26:32.871Z,2.90
2019-02-08T10:29:43.273Z,1.90
2019-02-08T10:32:46.577Z,1.80
2019-02-08T10:35:50.948Z,2.47
2019-02-08T10:39:30.648Z,1.87
2019-02-08T10:42:48.932Z,2.83
2019-02-08T10:46:08.317Z,2.52
2019-02-08T10:49:04.022Z,3.35
2019-02-08T10:52:19.451Z,1.55
2019-02-08T10:55:23.343Z,1.55
2019-02-08T10:58:49.826Z,2.27
2019-02-08T11:02:17.086Z,2.58
2019-02-08T11:05:51.383Z,2.52
2019-02-08T11:08:58.694Z,1.30
2019-02-08T11:12:05.620Z,1.30
2019-02-08T11:15:14.195Z,2.25
2019-02-08T11:18:21.451Z,2.08
2019-02-08T11:20:52.343Z,2.98
2019-02-08T11:23:23.074Z,1.77
2019-02-08T11:25:54.237Z,1.87
2019-02-08T11:28:25.437Z,1.90
2019-02-08T11:30:56.364Z,1.80
2019-02-08T11:33:27.262Z,1.62
2019-02-08T11:35:58.035Z,0.90
2019-02-08T11:38:28.771Z,1.05
2019-02-08T11:40:59.718Z,1.40
2019-02-08T11:43:30.714Z,1.60
2019-02-08T11:46:01.510Z,2.15
2019-02-08T11:48:32.338Z,1.40
2019-02-08T11:51:03.247Z,1.82
2019-02-08T11:53:34.059Z,1.07
2019-02-08T11:56:05.814Z,1.25
2019-02-08T11:58:37.006Z,2.40
2019-02-08T12:01:08.687Z,2.00
2019-02-08T12:03:39.504Z,1.37
2019-02-08T12:06:10.359Z,2.12
2019-02-08T12:08:41.254Z,1.70
2019-02-08T12:11:12.403Z,2.70
2019-02-08T12:13:43.187Z,2.20
2019-02-08T12:16:14.789Z,1.65
2019-02-08T12:18:47.195Z,1.50
2019-02-08T12:21:17.921Z,1.77
2019-02-08T12:23:49.782Z,0.98
2019-02-08T12:26:20.657Z,1.70
2019-02-08T12:28:51.389Z,1.33
2019-02-08T12:31:22.234Z,1.70
2019-02-08T12:33:52.988Z,1.98
2019-02-08T12:36:24.603Z,0.82
2019-02-08T12:38:55.410Z,1.87
2019-02-08T12:41:26.122Z,1.82
2019-02-08T12:43:56.894Z,2.02
2019-02-08T12:46:27.614Z,1.23
2019-02-08T12:48:58.361Z,1.55
2019-02-08T12:51:29.239Z,3.98
2019-02-08T12:54:00.160Z,1.57
2019-02-08T12:56:30.998Z,2.07
2019-02-08T12:59:02.067Z,1.90
2019-02-08T13:01:37.639Z,2.35
2019-02-08T13:04:05.568Z,1.87
2019-02-08T13:06:36.358Z,3.95
2019-02-08T13:09:11.142Z,2.87
2019-02-08T13:11:42.073Z,3.12
2019-02-08T13:14:12.939Z,3.67
2019-02-08T13:16:44.054Z,1.77
2019-02-08T13:19:14.796Z,5.55
2019-02-08T13:21:45.716Z,1.90
2019-02-08T13:24:16.560Z,3.13
2019-02-08T13:26:52.718Z,1.42
2019-02-08T13:29:20.169Z,2.50
2019-02-08T13:31:51.530Z,3.22
2019-02-08T13:34:22.342Z,2.75
2019-02-08T13:36:53.085Z,4.62
2019-02-08T13:39:24.203Z,2.85
2019-02-08T13:41:54.911Z,3.58
2019-02-08T13:44:25.721Z,2.95
2019-02-08T13:46:56.447Z,3.50
2019-02-08T13:49:27.235Z,3.40
2019-02-08T13:51:57.977Z,3.35
2019-02-08T13:54:28.837Z,3.80
2019-02-08T13:57:00.848Z,3.37
2019-02-08T13:59:32.131Z,3.15
2019-02-08T14:02:03.247Z,2.97
2019-02-08T14:04:34.087Z,3.30
2019-02-08T14:07:05.926Z,2.90
2019-02-08T14:09:36.871Z,3.90
2019-02-08T14:12:07.640Z,3.67
2019-02-08T14:14:38.684Z,4.67
2019-02-08T14:17:09.433Z,3.65
2019-02-08T14:19:40.491Z,3.03
2019-02-08T14:22:11.724Z,3.70
2019-02-08T14:24:42.717Z,3.12
2019-02-08T14:27:15.059Z,2.75
2019-02-08T14:29:45.822Z,3.08
2019-02-08T14:32:16.523Z,4.65
2019-02-08T14:34:48.296Z,3.80
2019-02-08T14:37:19.203Z,5.22
2019-02-08T14:39:49.950Z,5.33
2019-02-08T14:42:21.338Z,3.85
2019-02-08T14:44:52.131Z,4.40
2019-02-08T14:47:22.933Z,3.92
2019-02-08T14:49:53.691Z,4.65
2019-02-08T14:52:24.674Z,3.67
2019-02-08T14:54:55.415Z,3.87
2019-02-08T14:57:26.131Z,5.15
2019-02-08T14:59:57.314Z,6.33
2019-02-08T15:02:28.404Z,5.62
2019-02-08T15:04:59.210Z,3.52
2019-02-08T15:07:29.922Z,5.87
2019-02-08T15:10:00.670Z,5.10
2019-02-08T15:12:31.808Z,5.17
2019-02-08T15:15:02.610Z,5.17
2019-02-08T15:17:34.388Z,5.92
2019-02-08T15:20:08.012Z,5.28
2019-02-08T15:22:38.759Z,4.80
2019-02-08T15:25:09.875Z,4.87
2019-02-08T15:27:40.623Z,5.40
2019-02-08T15:30:14.677Z,5.80
2019-02-08T15:32:45.971Z,6.50
2019-02-08T15:35:18.476Z,6.72
2019-02-08T15:37:50.003Z,7.70
2019-02-08T15:40:27.415Z,6.53
2019-02-08T15:42:58.274Z,4.12
2019-02-08T15:45:29.163Z,7.83
2019-02-08T15:48:00.053Z,7.77
2019-02-08T15:50:31.424Z,6.65
2019-02-08T15:53:02.976Z,8.08
2019-02-08T15:55:35.519Z,7.75
2019-02-08T15:58:07.482Z,6.53
2019-02-08T16:00:38.855Z,7.42
2019-02-08T16:03:12.972Z,6.40
2019-02-08T16:05:44.353Z,8.05
2019-02-08T16:08:15.820Z,5.80
2019-02-08T16:10:46.750Z,7.45
2019-02-08T16:13:17.588Z,5.45
2019-02-08T16:15:48.706Z,11.60
2019-02-08T16:18:19.430Z,7.55
2019-02-08T16:20:51.297Z,9.83
2019-02-08T16:23:22.347Z,6.97
2019-02-08T16:25:53.721Z,9.00
2019-02-08T16:28:24.517Z,8.83
2019-02-08T16:30:55.511Z,6.15
2019-02-08T16:33:26.589Z,9.45
2019-02-08T16:35:57.785Z,8.50
2019-02-08T16:38:29.053Z,9.20
2019-02-08T16:41:00.186Z,5.72
2019-02-08T16:43:31.810Z,9.98
2019-02-08T16:46:04.517Z,8.77
2019-02-08T16:48:35.263Z,6.97
2019-02-08T16:51:06.854Z,7.22
2019-02-08T16:53:37.694Z,7.28
2019-02-08T16:56:09.674Z,9.68
2019-02-08T16:58:40.496Z,9.35
2019-02-08T17:01:11.332Z,8.30
2019-02-08T17:03:42.127Z,11.30
2019-02-08T17:06:15.078Z,8.57
2019-02-08T17:08:45.951Z,9.87
2019-02-08T17:11:17.603Z,10.63
2019-02-08T17:13:48.379Z,8.20
2019-02-08T17:16:19.568Z,10.23
2019-02-08T17:18:51.343Z,9.13
2019-02-08T17:21:22.640Z,9.63
2019-02-08T17:23:57.835Z,9.43
2019-02-08T17:26:28.832Z,11.08
2019-02-08T17:28:59.687Z,7.78
2019-02-08T17:31:30.795Z,15.45
2019-02-08T17:34:01.870Z,12.73
2019-02-08T17:36:32.664Z,10.95
2019-02-08T17:39:05.409Z,13.43
2019-02-08T17:41:36.225Z,13.10
2019-02-08T17:44:07.116Z,8.55
2019-02-08T17:46:37.894Z,12.10
2019-02-08T17:49:09.966Z,13.83
2019-02-08T17:51:41.120Z,11.70
2019-02-08T17:54:11.921Z,12.07
2019-02-08T17:56:42.610Z,9.43
2019-02-08T17:59:14.514Z,10.55
2019-02-08T18:01:45.520Z,7.17
2019-02-08T18:04:16.314Z,6.75
2019-02-08T18:06:47.103Z,8.00
2019-02-08T18:09:17.891Z,8.53
2019-02-08T18:11:48.695Z,9.15
2019-02-08T18:14:19.463Z,6.90
2019-02-08T18:16:50.582Z,9.58
2019-02-08T18:19:21.405Z,8.93
2019-02-08T18:21:52.231Z,9.55
2019-02-08T18:24:23.917Z,9.18
2019-02-08T18:26:54.988Z,10.47
2019-02-08T18:29:25.808Z,7.73
2019-02-08T18:31:56.805Z,9.38
2019-02-08T18:34:28.548Z,8.03
2019-02-08T18:36:59.740Z,6.80
2019-02-08T18:39:30.479Z,5.40
2019-02-08T18:42:01.212Z,6.08
2019-02-08T18:44:31.930Z,7.28
2019-02-08T18:47:02.728Z,7.65
2019-02-08T18:49:33.804Z,6.42
2019-02-08T18:52:04.929Z,7.20
2019-02-08T18:54:35.840Z,8.25
2019-02-08T18:57:07.044Z,6.05
2019-02-08T18:59:37.793Z,5.28
2019-02-08T19:02:08.697Z,6.78
2019-02-08T19:04:39.464Z,4.65
2019-02-08T19:07:10.313Z,6.53
2019-02-08T19:09:41.149Z,5.50
2019-02-08T19:12:13.252Z,8.33
2019-02-08T19:14:44.246Z,5.95
2019-02-08T19:17:15.634Z,5.28
2019-02-08T19:19:47.102Z,8.10
2019-02-08T19:22:18.263Z,6.22
2019-02-08T19:24:49.598Z,4.25
2019-02-08T19:27:20.711Z,5.83
2019-02-08T19:29:51.449Z,4.97
2019-02-08T19:32:22.439Z,6.45
2019-02-08T19:34:53.311Z,6.50
2019-02-08T19:37:24.015Z,5.72
2019-02-08T19:39:55.339Z,6.37
2019-02-08T19:42:26.072Z,5.47
2019-02-08T19:44:56.775Z,7.33
2019-02-08T19:47:28.002Z,6.25
2019-02-08T19:49:58.864Z,7.65
2019-02-08T19:52:29.934Z,7.17
2019-02-08T19:55:00.807Z,6.55
2019-02-08T19:57:32.894Z,6.12
2019-02-08T20:00:05.465Z,7.55
2019-02-08T20:02:36.219Z,4.80
2019-02-08T20:05:11.905Z,5.50
2019-02-08T20:07:43.055Z,7.30
2019-02-08T20:10:16.831Z,5.75
2019-02-08T20:12:47.914Z,7.60
2019-02-08T20:15:19.653Z,7.65
2019-02-08T20:17:50.464Z,5.23
2019-02-08T20:20:21.353Z,7.10
2019-02-08T20:22:52.691Z,4.85
2019-02-08T20:25:28.657Z,5.33
2019-02-08T20:27:59.509Z,7.25
2019-02-08T20:30:31.659Z,6.33
2019-02-08T20:33:02.753Z,6.10
2019-02-08T20:35:33.591Z,6.10
2019-02-08T20:38:05.144Z,8.03
2019-02-08T20:40:47.594Z,7.97
2019-02-08T20:43:19.586Z,5.92
2019-02-08T20:45:50.433Z,7.25
2019-02-08T20:48:23.240Z,5.33
2019-02-08T20:50:54.148Z,7.42
2019-02-08T20:53:25.997Z,8.43
2019-02-08T20:55:57.096Z,5.25
2019-02-08T20:58:29.079Z,8.68
2019-02-08T21:01:00.143Z,4.35
2019-02-08T21:03:31.005Z,5.92
2019-02-08T21:06:01.797Z,6.12
2019-02-08T21:08:32.735Z,5.45
2019-02-08T21:11:03.746Z,5.83
2019-02-08T21:13:35.015Z,5.87
2019-02-08T21:16:06.179Z,6.00
2019-02-08T21:18:37.002Z,6.70
2019-02-08T21:21:07.878Z,6.30
2019-02-08T21:23:38.764Z,6.85
2019-02-08T21:26:09.649Z,7.05
2019-02-08T21:28:40.445Z,8.53
2019-02-08T21:31:11.530Z,8.25
2019-02-08T21:33:42.738Z,7.78
2019-02-08T21:36:13.668Z,7.17
2019-02-08T21:38:45.014Z,5.40
2019-02-08T21:41:16.235Z,4.55
2019-02-08T21:43:47.144Z,6.55
2019-02-08T21:46:18.339Z,6.45
2019-02-08T21:48:49.518Z,10.25
2019-02-08T21:51:20.485Z,14.23
2019-02-08T21:53:51.347Z,5.03
2019-02-08T21:56:22.252Z,4.67
2019-02-08T21:58:53.290Z,4.20
2019-02-08T22:01:24.111Z,6.35
2019-02-08T22:03:55.540Z,4.77
2019-02-08T22:06:26.451Z,4.95
2019-02-08T22:08:58.613Z,8.35
2019-02-08T22:11:29.654Z,5.72
2019-02-08T22:14:00.853Z,4.30
2019-02-08T22:16:31.663Z,5.97
2019-02-08T22:19:02.414Z,5.87
2019-02-08T22:21:33.337Z,4.83
2019-02-08T22:24:04.500Z,6.60
2019-02-08T22:26:35.452Z,5.23
2019-02-08T22:29:13.711Z,7.72
2019-02-08T22:31:39.157Z,6.12
2019-02-08T22:34:09.891Z,5.55
2019-02-08T22:36:41.010Z,4.87
2019-02-08T22:39:12.130Z,6.05
2019-02-08T22:41:43.070Z,4.70
2019-02-08T22:44:14.035Z,5.78
2019-02-08T22:46:44.935Z,5.78
2019-02-08T22:49:15.706Z,6.28
2019-02-08T22:51:46.625Z,5.60
2019-02-08T22:54:17.555Z,6.65
2019-02-08T22:56:48.456Z,6.80
2019-02-08T22:59:21.971Z,6.30
2019-02-08T23:01:52.889Z,6.28
2019-02-08T23:04:24.611Z,7.50
2019-02-08T23:06:55.854Z,5.35
2019-02-08T23:09:26.816Z,4.58
2019-02-08T23:11:57.822Z,4.85
2019-02-08T23:14:29.211Z,8.20
2019-02-08T23:17:00.410Z,6.67
2019-02-08T23:19:31.473Z,4.95
2019-02-08T23:22:02.201Z,6.58
2019-02-08T23:24:33.465Z,7.53
2019-02-08T23:27:04.442Z,6.78
2019-02-08T23:29:35.158Z,5.97
2019-02-08T23:32:07.068Z,5.83
2019-02-08T23:34:37.783Z,6.50
2019-02-08T23:37:08.790Z,6.35
2019-02-08T23:39:39.838Z,4.97
2019-02-08T23:42:10.969Z,6.85
2019-02-08T23:44:41.670Z,6.58
2019-02-08T23:47:12.725Z,5.80
2019-02-08T23:49:43.460Z,6.72
2019-02-08T23:52:15.641Z,8.18
2019-02-08T23:54:46.492Z,7.17
2019-02-08T23:57:17.349Z,6.03
2019-02-08T23:59:48.194Z,5.22
